sensor_id;sensor_type;location;lat;lon;timestamp;P1;durP1;ratioP1;P2;durP2;ratioP2
18072;SDS011;9161;47.348;9.648;2023-11-19T00:00:20;4.47;;;1.50;;
18072;SDS011;9161;47.348;9.648;2023-11-19T00:05:23;2.77;;;1.00;;
18072;SDS011;9161;47.348;9.648;2023-11-19T00:10:29;2.30;;;0.30;;
18072;SDS011;9161;47.348;9.648;2023-11-19T00:15:31;0.57;;;0.40;;
18072;SDS011;9161;47.348;9.648;2023-11-19T00:20:33;0.73;;;0.20;;
18072;SDS011;9161;47.348;9.648;2023-11-19T00:25:37;1.37;;;0.70;;
18072;SDS011;9161;47.348;9.648;2023-11-19T00:30:40;0.93;;;0.37;;
18072;SDS011;9161;47.348;9.648;2023-11-19T00:35:43;1.53;;;0.43;;
18072;SDS011;9161;47.348;9.648;2023-11-19T00:40:47;0.73;;;0.30;;
18072;SDS011;9161;47.348;9.648;2023-11-19T00:45:49;0.20;;;0.20;;
18072;SDS011;9161;47.348;9.648;2023-11-19T00:50:52;1.27;;;0.40;;
18072;SDS011;9161;47.348;9.648;2023-11-19T00:55:55;1.17;;;0.20;;
18072;SDS011;9161;47.348;9.648;2023-11-19T01:00:58;0.40;;;0.20;;
18072;SDS011;9161;47.348;9.648;2023-11-19T01:06:01;0.47;;;0.20;;
18072;SDS011;9161;47.348;9.648;2023-11-19T01:11:07;0.93;;;0.47;;
18072;SDS011;9161;47.348;9.648;2023-11-19T01:16:10;0.37;;;0.30;;
18072;SDS011;9161;47.348;9.648;2023-11-19T01:21:13;0.27;;;0.20;;
18072;SDS011;9161;47.348;9.648;2023-11-19T01:26:17;0.50;;;0.30;;
18072;SDS011;9161;47.348;9.648;2023-11-19T01:31:20;0.00;;;0.00;;
18072;SDS011;9161;47.348;9.648;2023-11-19T01:36:21;0.23;;;0.20;;
18072;SDS011;9161;47.348;9.648;2023-11-19T01:41:25;3.87;;;0.40;;
18072;SDS011;9161;47.348;9.648;2023-11-19T01:46:28;0.70;;;0.30;;
18072;SDS011;9161;47.348;9.648;2023-11-19T01:51:33;2.30;;;0.53;;
18072;SDS011;9161;47.348;9.648;2023-11-19T01:56:40;1.93;;;0.80;;
18072;SDS011;9161;47.348;9.648;2023-11-19T02:01:43;13.63;;;4.30;;
18072;SDS011;9161;47.348;9.648;2023-11-19T02:06:45;2.77;;;0.53;;
18072;SDS011;9161;47.348;9.648;2023-11-19T02:11:51;3.67;;;0.77;;
18072;SDS011;9161;47.348;9.648;2023-11-19T02:16:53;0.30;;;0.30;;
18072;SDS011;9161;47.348;9.648;2023-11-19T02:21:56;0.40;;;0.20;;
18072;SDS011;9161;47.348;9.648;2023-11-19T02:27:14;1.30;;;0.23;;
18072;SDS011;9161;47.348;9.648;2023-11-19T02:32:22;0.40;;;0.10;;
18072;SDS011;9161;47.348;9.648;2023-11-19T02:37:28;0.77;;;0.47;;
18072;SDS011;9161;47.348;9.648;2023-11-19T02:42:30;1.03;;;0.40;;
18072;SDS011;9161;47.348;9.648;2023-11-19T02:47:35;0.30;;;0.20;;
18072;SDS011;9161;47.348;9.648;2023-11-19T02:52:37;0.30;;;0.20;;
18072;SDS011;9161;47.348;9.648;2023-11-19T02:57:39;0.50;;;0.30;;
18072;SDS011;9161;47.348;9.648;2023-11-19T03:02:47;0.50;;;0.20;;
18072;SDS011;9161;47.348;9.648;2023-11-19T03:07:59;0.43;;;0.10;;
18072;SDS011;9161;47.348;9.648;2023-11-19T03:13:01;1.77;;;0.50;;
18072;SDS011;9161;47.348;9.648;2023-11-19T03:18:06;0.10;;;0.10;;
18072;SDS011;9161;47.348;9.648;2023-11-19T03:23:09;0.60;;;0.20;;
18072;SDS011;9161;47.348;9.648;2023-11-19T03:28:11;1.17;;;0.30;;
18072;SDS011;9161;47.348;9.648;2023-11-19T03:33:15;0.20;;;0.20;;
18072;SDS011;9161;47.348;9.648;2023-11-19T03:38:17;0.20;;;0.10;;
18072;SDS011;9161;47.348;9.648;2023-11-19T03:43:19;1.07;;;0.30;;
18072;SDS011;9161;47.348;9.648;2023-11-19T03:48:23;1.57;;;0.60;;
18072;SDS011;9161;47.348;9.648;2023-11-19T03:53:25;1.40;;;0.70;;
18072;SDS011;9161;47.348;9.648;2023-11-19T03:58:27;0.83;;;0.50;;
18072;SDS011;9161;47.348;9.648;2023-11-19T04:03:31;0.83;;;0.30;;
18072;SDS011;9161;47.348;9.648;2023-11-19T04:08:33;1.07;;;0.50;;
18072;SDS011;9161;47.348;9.648;2023-11-19T04:13:36;0.87;;;0.67;;
18072;SDS011;9161;47.348;9.648;2023-11-19T04:18:40;1.10;;;0.83;;
18072;SDS011;9161;47.348;9.648;2023-11-19T04:23:42;1.17;;;0.40;;
18072;SDS011;9161;47.348;9.648;2023-11-19T04:28:44;1.37;;;0.70;;
18072;SDS011;9161;47.348;9.648;2023-11-19T04:33:48;0.40;;;0.37;;
18072;SDS011;9161;47.348;9.648;2023-11-19T04:38:52;0.80;;;0.60;;
18072;SDS011;9161;47.348;9.648;2023-11-19T04:43:54;0.50;;;0.43;;
18072;SDS011;9161;47.348;9.648;2023-11-19T04:48:57;0.70;;;0.60;;
18072;SDS011;9161;47.348;9.648;2023-11-19T04:53:59;0.40;;;0.30;;
18072;SDS011;9161;47.348;9.648;2023-11-19T04:59:02;6.43;;;1.23;;
18072;SDS011;9161;47.348;9.648;2023-11-19T05:04:07;0.53;;;0.30;;
18072;SDS011;9161;47.348;9.648;2023-11-19T05:09:10;0.20;;;0.20;;
18072;SDS011;9161;47.348;9.648;2023-11-19T05:14:13;4.20;;;0.43;;
18072;SDS011;9161;47.348;9.648;2023-11-19T05:19:17;0.30;;;0.30;;
18072;SDS011;9161;47.348;9.648;2023-11-19T05:24:20;0.67;;;0.37;;
18072;SDS011;9161;47.348;9.648;2023-11-19T05:29:22;0.63;;;0.50;;
18072;SDS011;9161;47.348;9.648;2023-11-19T05:34:27;0.77;;;0.30;;
18072;SDS011;9161;47.348;9.648;2023-11-19T05:39:29;0.97;;;0.40;;
18072;SDS011;9161;47.348;9.648;2023-11-19T05:44:30;1.07;;;0.50;;
18072;SDS011;9161;47.348;9.648;2023-11-19T05:49:34;0.87;;;0.40;;
18072;SDS011;9161;47.348;9.648;2023-11-19T05:54:36;1.40;;;0.50;;
18072;SDS011;9161;47.348;9.648;2023-11-19T05:59:38;2.10;;;0.53;;
18072;SDS011;9161;47.348;9.648;2023-11-19T06:04:41;1.30;;;0.70;;
18072;SDS011;9161;47.348;9.648;2023-11-19T06:09:47;0.83;;;0.60;;
18072;SDS011;9161;47.348;9.648;2023-11-19T06:14:49;3.57;;;0.77;;
18072;SDS011;9161;47.348;9.648;2023-11-19T06:19:53;1.17;;;0.70;;
18072;SDS011;9161;47.348;9.648;2023-11-19T06:24:55;1.17;;;0.50;;
18072;SDS011;9161;47.348;9.648;2023-11-19T06:30:00;0.70;;;0.50;;
18072;SDS011;9161;47.348;9.648;2023-11-19T06:35:04;1.40;;;0.43;;
18072;SDS011;9161;47.348;9.648;2023-11-19T06:40:07;0.80;;;0.60;;
18072;SDS011;9161;47.348;9.648;2023-11-19T06:45:10;1.07;;;0.50;;
18072;SDS011;9161;47.348;9.648;2023-11-19T06:50:15;0.60;;;0.50;;
18072;SDS011;9161;47.348;9.648;2023-11-19T06:55:19;2.00;;;0.70;;
18072;SDS011;9161;47.348;9.648;2023-11-19T07:00:21;1.37;;;0.87;;
18072;SDS011;9161;47.348;9.648;2023-11-19T07:05:25;1.73;;;1.00;;
18072;SDS011;9161;47.348;9.648;2023-11-19T07:10:27;1.13;;;0.83;;
18072;SDS011;9161;47.348;9.648;2023-11-19T07:15:30;1.17;;;0.80;;
18072;SDS011;9161;47.348;9.648;2023-11-19T07:20:35;1.67;;;1.13;;
18072;SDS011;9161;47.348;9.648;2023-11-19T07:25:37;2.07;;;1.00;;
18072;SDS011;9161;47.348;9.648;2023-11-19T07:30:39;1.47;;;0.70;;
18072;SDS011;9161;47.348;9.648;2023-11-19T07:35:43;1.77;;;0.90;;
18072;SDS011;9161;47.348;9.648;2023-11-19T07:40:45;1.80;;;1.00;;
18072;SDS011;9161;47.348;9.648;2023-11-19T07:45:51;1.87;;;1.13;;
18072;SDS011;9161;47.348;9.648;2023-11-19T07:50:54;2.37;;;1.20;;
18072;SDS011;9161;47.348;9.648;2023-11-19T07:55:56;2.97;;;1.20;;
18072;SDS011;9161;47.348;9.648;2023-11-19T08:01:00;2.23;;;1.10;;
18072;SDS011;9161;47.348;9.648;2023-11-19T08:06:05;2.23;;;1.00;;
18072;SDS011;9161;47.348;9.648;2023-11-19T08:11:07;3.20;;;1.70;;
18072;SDS011;9161;47.348;9.648;2023-11-19T08:16:09;3.00;;;1.10;;
18072;SDS011;9161;47.348;9.648;2023-11-19T08:21:13;2.00;;;1.20;;
18072;SDS011;9161;47.348;9.648;2023-11-19T08:26:15;2.27;;;1.40;;
18072;SDS011;9161;47.348;9.648;2023-11-19T08:31:20;2.70;;;1.53;;
18072;SDS011;9161;47.348;9.648;2023-11-19T08:36:24;2.60;;;1.57;;
18072;SDS011;9161;47.348;9.648;2023-11-19T08:41:28;2.03;;;1.40;;
18072;SDS011;9161;47.348;9.648;2023-11-19T08:46:30;3.70;;;2.27;;
18072;SDS011;9161;47.348;9.648;2023-11-19T08:51:34;2.87;;;1.63;;
18072;SDS011;9161;47.348;9.648;2023-11-19T08:56:36;4.00;;;2.20;;
18072;SDS011;9161;47.348;9.648;2023-11-19T09:01:40;3.77;;;2.00;;
18072;SDS011;9161;47.348;9.648;2023-11-19T09:06:44;2.63;;;1.70;;
18072;SDS011;9161;47.348;9.648;2023-11-19T09:11:46;4.27;;;2.47;;
18072;SDS011;9161;47.348;9.648;2023-11-19T09:16:49;2.43;;;1.63;;
18072;SDS011;9161;47.348;9.648;2023-11-19T09:21:53;1.87;;;1.00;;
18072;SDS011;9161;47.348;9.648;2023-11-19T09:26:56;2.17;;;1.27;;
18072;SDS011;9161;47.348;9.648;2023-11-19T09:31:59;2.00;;;1.33;;
18072;SDS011;9161;47.348;9.648;2023-11-19T09:37:07;1.73;;;1.20;;
18072;SDS011;9161;47.348;9.648;2023-11-19T09:42:16;2.43;;;1.60;;
18072;SDS011;9161;47.348;9.648;2023-11-19T09:47:19;2.87;;;1.70;;
18072;SDS011;9161;47.348;9.648;2023-11-19T09:52:23;4.67;;;2.30;;
18072;SDS011;9161;47.348;9.648;2023-11-19T09:57:26;3.20;;;1.60;;
18072;SDS011;9161;47.348;9.648;2023-11-19T10:02:29;1.37;;;0.80;;
18072;SDS011;9161;47.348;9.648;2023-11-19T10:07:38;0.87;;;0.70;;
18072;SDS011;9161;47.348;9.648;2023-11-19T10:12:40;1.30;;;0.90;;
18072;SDS011;9161;47.348;9.648;2023-11-19T10:17:45;3.20;;;1.10;;
18072;SDS011;9161;47.348;9.648;2023-11-19T10:22:50;1.53;;;0.90;;
18072;SDS011;9161;47.348;9.648;2023-11-19T10:27:56;2.53;;;1.03;;
18072;SDS011;9161;47.348;9.648;2023-11-19T10:33:05;1.80;;;1.10;;
18072;SDS011;9161;47.348;9.648;2023-11-19T10:38:14;3.07;;;1.50;;
18072;SDS011;9161;47.348;9.648;2023-11-19T10:43:18;2.83;;;1.03;;
18072;SDS011;9161;47.348;9.648;2023-11-19T10:48:22;1.63;;;0.97;;
18072;SDS011;9161;47.348;9.648;2023-11-19T10:53:28;2.17;;;1.07;;
18072;SDS011;9161;47.348;9.648;2023-11-19T10:58:37;2.03;;;1.03;;
18072;SDS011;9161;47.348;9.648;2023-11-19T11:03:46;0.63;;;0.50;;
18072;SDS011;9161;47.348;9.648;2023-11-19T11:08:54;1.80;;;0.73;;
18072;SDS011;9161;47.348;9.648;2023-11-19T11:14:00;1.00;;;0.70;;
18072;SDS011;9161;47.348;9.648;2023-11-19T11:19:05;1.30;;;1.00;;
18072;SDS011;9161;47.348;9.648;2023-11-19T11:24:24;1.40;;;1.00;;
18072;SDS011;9161;47.348;9.648;2023-11-19T11:29:40;2.60;;;1.50;;
18072;SDS011;9161;47.348;9.648;2023-11-19T11:34:57;1.50;;;0.77;;
18072;SDS011;9161;47.348;9.648;2023-11-19T11:40:14;2.67;;;0.53;;
18072;SDS011;9161;47.348;9.648;2023-11-19T11:45:18;1.43;;;1.00;;
18072;SDS011;9161;47.348;9.648;2023-11-19T11:50:49;1.30;;;0.90;;
18072;SDS011;9161;47.348;9.648;2023-11-19T11:55:58;3.63;;;0.60;;
18072;SDS011;9161;47.348;9.648;2023-11-19T12:01:03;1.23;;;0.73;;
18072;SDS011;9161;47.348;9.648;2023-11-19T12:06:09;1.57;;;0.77;;
18072;SDS011;9161;47.348;9.648;2023-11-19T12:11:15;2.63;;;0.60;;
18072;SDS011;9161;47.348;9.648;2023-11-19T12:16:19;2.93;;;1.47;;
18072;SDS011;9161;47.348;9.648;2023-11-19T12:21:29;1.17;;;0.70;;
18072;SDS011;9161;47.348;9.648;2023-11-19T12:26:35;2.07;;;1.00;;
18072;SDS011;9161;47.348;9.648;2023-11-19T12:31:39;3.43;;;1.10;;
18072;SDS011;9161;47.348;9.648;2023-11-19T12:36:46;2.10;;;0.80;;
18072;SDS011;9161;47.348;9.648;2023-11-19T12:41:51;1.27;;;0.73;;
18072;SDS011;9161;47.348;9.648;2023-11-19T12:47:02;3.30;;;1.30;;
18072;SDS011;9161;47.348;9.648;2023-11-19T12:52:13;1.77;;;1.00;;
18072;SDS011;9161;47.348;9.648;2023-11-19T12:57:17;2.07;;;1.10;;
18072;SDS011;9161;47.348;9.648;2023-11-19T13:02:20;2.13;;;1.10;;
18072;SDS011;9161;47.348;9.648;2023-11-19T13:07:23;1.63;;;1.17;;
18072;SDS011;9161;47.348;9.648;2023-11-19T13:12:27;1.57;;;0.93;;
18072;SDS011;9161;47.348;9.648;2023-11-19T13:17:29;5.60;;;1.67;;
18072;SDS011;9161;47.348;9.648;2023-11-19T13:22:31;5.07;;;1.53;;
18072;SDS011;9161;47.348;9.648;2023-11-19T13:27:35;7.40;;;2.67;;
18072;SDS011;9161;47.348;9.648;2023-11-19T13:32:37;3.13;;;1.70;;
18072;SDS011;9161;47.348;9.648;2023-11-19T13:37:40;2.30;;;1.10;;
18072;SDS011;9161;47.348;9.648;2023-11-19T13:42:45;1.60;;;0.80;;
18072;SDS011;9161;47.348;9.648;2023-11-19T13:47:48;1.60;;;0.87;;
18072;SDS011;9161;47.348;9.648;2023-11-19T13:52:51;5.30;;;1.37;;
18072;SDS011;9161;47.348;9.648;2023-11-19T13:57:58;1.50;;;0.80;;
18072;SDS011;9161;47.348;9.648;2023-11-19T14:03:01;2.07;;;1.10;;
18072;SDS011;9161;47.348;9.648;2023-11-19T14:08:04;3.77;;;1.70;;
18072;SDS011;9161;47.348;9.648;2023-11-19T14:13:27;1.33;;;1.03;;
18072;SDS011;9161;47.348;9.648;2023-11-19T14:18:33;2.23;;;1.20;;
18072;SDS011;9161;47.348;9.648;2023-11-19T14:23:40;1.63;;;0.83;;
18072;SDS011;9161;47.348;9.648;2023-11-19T14:28:46;2.40;;;1.30;;
18072;SDS011;9161;47.348;9.648;2023-11-19T14:33:54;1.57;;;1.03;;
18072;SDS011;9161;47.348;9.648;2023-11-19T14:38:57;3.63;;;1.40;;
18072;SDS011;9161;47.348;9.648;2023-11-19T14:44:07;20.43;;;9.00;;
18072;SDS011;9161;47.348;9.648;2023-11-19T14:49:10;11.57;;;4.37;;
18072;SDS011;9161;47.348;9.648;2023-11-19T14:54:12;7.47;;;2.60;;
18072;SDS011;9161;47.348;9.648;2023-11-19T14:59:17;5.27;;;1.83;;
18072;SDS011;9161;47.348;9.648;2023-11-19T15:04:20;3.47;;;2.00;;
18072;SDS011;9161;47.348;9.648;2023-11-19T15:09:23;6.20;;;2.33;;
18072;SDS011;9161;47.348;9.648;2023-11-19T15:14:28;2.03;;;1.33;;
18072;SDS011;9161;47.348;9.648;2023-11-19T15:19:31;3.47;;;1.97;;
18072;SDS011;9161;47.348;9.648;2023-11-19T15:24:34;4.77;;;1.90;;
18072;SDS011;9161;47.348;9.648;2023-11-19T15:29:41;3.73;;;1.60;;
18072;SDS011;9161;47.348;9.648;2023-11-19T15:34:43;3.70;;;1.97;;
18072;SDS011;9161;47.348;9.648;2023-11-19T15:39:48;4.33;;;2.30;;
18072;SDS011;9161;47.348;9.648;2023-11-19T15:44:53;5.77;;;2.00;;
18072;SDS011;9161;47.348;9.648;2023-11-19T15:49:57;2.60;;;1.90;;
18072;SDS011;9161;47.348;9.648;2023-11-19T15:54:59;3.03;;;2.00;;
18072;SDS011;9161;47.348;9.648;2023-11-19T16:00:03;9.63;;;3.20;;
18072;SDS011;9161;47.348;9.648;2023-11-19T16:05:08;12.93;;;5.60;;
18072;SDS011;9161;47.348;9.648;2023-11-19T16:10:14;9.90;;;3.93;;
18072;SDS011;9161;47.348;9.648;2023-11-19T16:15:26;8.73;;;4.03;;
18072;SDS011;9161;47.348;9.648;2023-11-19T16:20:31;11.70;;;4.63;;
18072;SDS011;9161;47.348;9.648;2023-11-19T16:25:35;8.20;;;4.30;;
18072;SDS011;9161;47.348;9.648;2023-11-19T16:30:41;8.03;;;4.07;;
18072;SDS011;9161;47.348;9.648;2023-11-19T16:35:43;8.50;;;3.97;;
18072;SDS011;9161;47.348;9.648;2023-11-19T16:40:45;7.40;;;4.00;;
18072;SDS011;9161;47.348;9.648;2023-11-19T16:45:52;7.57;;;4.43;;
18072;SDS011;9161;47.348;9.648;2023-11-19T16:50:55;8.13;;;4.67;;
18072;SDS011;9161;47.348;9.648;2023-11-19T16:56:00;8.23;;;4.00;;
18072;SDS011;9161;47.348;9.648;2023-11-19T17:01:04;9.83;;;5.67;;
18072;SDS011;9161;47.348;9.648;2023-11-19T17:06:07;13.30;;;4.73;;
18072;SDS011;9161;47.348;9.648;2023-11-19T17:11:10;8.27;;;5.10;;
18072;SDS011;9161;47.348;9.648;2023-11-19T17:16:13;7.63;;;4.27;;
18072;SDS011;9161;47.348;9.648;2023-11-19T17:21:16;9.17;;;4.30;;
18072;SDS011;9161;47.348;9.648;2023-11-19T17:26:18;10.07;;;5.57;;
18072;SDS011;9161;47.348;9.648;2023-11-19T17:31:22;8.77;;;4.37;;
18072;SDS011;9161;47.348;9.648;2023-11-19T17:36:24;11.73;;;6.07;;
18072;SDS011;9161;47.348;9.648;2023-11-19T17:41:26;15.17;;;6.73;;
18072;SDS011;9161;47.348;9.648;2023-11-19T17:46:30;10.30;;;5.50;;
18072;SDS011;9161;47.348;9.648;2023-11-19T17:51:33;12.63;;;7.03;;
18072;SDS011;9161;47.348;9.648;2023-11-19T17:56:36;9.53;;;5.50;;
18072;SDS011;9161;47.348;9.648;2023-11-19T18:01:43;15.47;;;7.53;;
18072;SDS011;9161;47.348;9.648;2023-11-19T18:06:52;10.43;;;6.13;;
18072;SDS011;9161;47.348;9.648;2023-11-19T18:11:59;10.43;;;5.07;;
18072;SDS011;9161;47.348;9.648;2023-11-19T18:17:17;7.87;;;4.60;;
18072;SDS011;9161;47.348;9.648;2023-11-19T18:22:24;12.03;;;6.27;;
18072;SDS011;9161;47.348;9.648;2023-11-19T18:27:29;9.57;;;4.73;;
18072;SDS011;9161;47.348;9.648;2023-11-19T18:32:38;11.37;;;5.60;;
18072;SDS011;9161;47.348;9.648;2023-11-19T18:37:50;7.90;;;4.60;;
18072;SDS011;9161;47.348;9.648;2023-11-19T18:43:01;9.37;;;4.50;;
18072;SDS011;9161;47.348;9.648;2023-11-19T18:48:14;11.27;;;3.83;;
18072;SDS011;9161;47.348;9.648;2023-11-19T18:53:22;7.43;;;3.70;;
18072;SDS011;9161;47.348;9.648;2023-11-19T18:58:34;11.90;;;5.07;;
18072;SDS011;9161;47.348;9.648;2023-11-19T19:03:45;10.37;;;5.13;;
18072;SDS011;9161;47.348;9.648;2023-11-19T19:08:56;10.33;;;5.30;;
18072;SDS011;9161;47.348;9.648;2023-11-19T19:14:17;12.17;;;7.50;;
18072;SDS011;9161;47.348;9.648;2023-11-19T19:19:29;12.43;;;6.83;;
18072;SDS011;9161;47.348;9.648;2023-11-19T19:24:37;13.87;;;7.37;;
18072;SDS011;9161;47.348;9.648;2023-11-19T19:29:45;11.50;;;5.53;;
18072;SDS011;9161;47.348;9.648;2023-11-19T19:34:58;9.77;;;5.53;;
18072;SDS011;9161;47.348;9.648;2023-11-19T19:40:04;9.90;;;5.70;;
18072;SDS011;9161;47.348;9.648;2023-11-19T19:45:17;16.43;;;5.67;;
18072;SDS011;9161;47.348;9.648;2023-11-19T19:50:26;11.77;;;5.60;;
18072;SDS011;9161;47.348;9.648;2023-11-19T19:55:32;7.90;;;4.30;;
18072;SDS011;9161;47.348;9.648;2023-11-19T20:00:39;11.80;;;4.50;;
18072;SDS011;9161;47.348;9.648;2023-11-19T20:06:00;6.23;;;4.23;;
18072;SDS011;9161;47.348;9.648;2023-11-19T20:11:13;6.83;;;3.67;;
18072;SDS011;9161;47.348;9.648;2023-11-19T20:16:23;7.07;;;3.23;;
18072;SDS011;9161;47.348;9.648;2023-11-19T20:21:42;6.27;;;3.00;;
18072;SDS011;9161;47.348;9.648;2023-11-19T20:26:53;9.20;;;4.23;;
18072;SDS011;9161;47.348;9.648;2023-11-19T20:32:17;8.03;;;3.73;;
18072;SDS011;9161;47.348;9.648;2023-11-19T20:37:27;8.60;;;4.07;;
18072;SDS011;9161;47.348;9.648;2023-11-19T20:42:39;8.80;;;4.00;;
18072;SDS011;9161;47.348;9.648;2023-11-19T20:47:46;7.70;;;3.87;;
18072;SDS011;9161;47.348;9.648;2023-11-19T20:52:59;7.33;;;3.97;;
18072;SDS011;9161;47.348;9.648;2023-11-19T20:58:11;8.37;;;4.23;;
18072;SDS011;9161;47.348;9.648;2023-11-19T21:03:20;5.47;;;3.20;;
18072;SDS011;9161;47.348;9.648;2023-11-19T21:08:28;7.83;;;4.13;;
18072;SDS011;9161;47.348;9.648;2023-11-19T21:13:35;8.50;;;4.20;;
18072;SDS011;9161;47.348;9.648;2023-11-19T21:18:43;8.27;;;4.43;;
18072;SDS011;9161;47.348;9.648;2023-11-19T21:24:05;6.90;;;3.40;;
18072;SDS011;9161;47.348;9.648;2023-11-19T21:29:14;6.33;;;3.57;;
18072;SDS011;9161;47.348;9.648;2023-11-19T21:34:18;9.20;;;5.10;;
18072;SDS011;9161;47.348;9.648;2023-11-19T21:39:26;10.83;;;5.10;;
18072;SDS011;9161;47.348;9.648;2023-11-19T21:44:31;8.17;;;4.70;;
18072;SDS011;9161;47.348;9.648;2023-11-19T21:49:41;6.73;;;3.87;;
18072;SDS011;9161;47.348;9.648;2023-11-19T21:54:47;7.87;;;3.67;;
18072;SDS011;9161;47.348;9.648;2023-11-19T21:59:54;7.53;;;3.40;;
18072;SDS011;9161;47.348;9.648;2023-11-19T22:05:04;8.07;;;2.37;;
18072;SDS011;9161;47.348;9.648;2023-11-19T22:10:29;5.00;;;3.20;;
18072;SDS011;9161;47.348;9.648;2023-11-19T22:15:38;3.90;;;2.13;;
18072;SDS011;9161;47.348;9.648;2023-11-19T22:20:47;4.90;;;2.53;;
18072;SDS011;9161;47.348;9.648;2023-11-19T22:25:50;3.13;;;1.63;;
18072;SDS011;9161;47.348;9.648;2023-11-19T22:30:53;2.67;;;1.30;;
18072;SDS011;9161;47.348;9.648;2023-11-19T22:35:55;3.37;;;1.20;;
18072;SDS011;9161;47.348;9.648;2023-11-19T22:41:00;1.40;;;1.00;;
18072;SDS011;9161;47.348;9.648;2023-11-19T22:46:02;1.70;;;0.90;;
18072;SDS011;9161;47.348;9.648;2023-11-19T22:51:07;2.17;;;1.07;;
18072;SDS011;9161;47.348;9.648;2023-11-19T22:56:13;3.27;;;0.90;;
18072;SDS011;9161;47.348;9.648;2023-11-19T23:01:17;3.87;;;1.50;;
18072;SDS011;9161;47.348;9.648;2023-11-19T23:06:19;4.97;;;1.97;;
18072;SDS011;9161;47.348;9.648;2023-11-19T23:11:22;3.50;;;1.97;;
18072;SDS011;9161;47.348;9.648;2023-11-19T23:16:25;4.53;;;2.43;;
18072;SDS011;9161;47.348;9.648;2023-11-19T23:21:27;4.10;;;2.20;;
18072;SDS011;9161;47.348;9.648;2023-11-19T23:26:32;4.37;;;2.47;;
18072;SDS011;9161;47.348;9.648;2023-11-19T23:31:35;5.53;;;2.63;;
18072;SDS011;9161;47.348;9.648;2023-11-19T23:36:37;22.17;;;7.17;;
18072;SDS011;9161;47.348;9.648;2023-11-19T23:41:41;5.37;;;2.77;;
18072;SDS011;9161;47.348;9.648;2023-11-19T23:46:42;6.13;;;2.70;;
18072;SDS011;9161;47.348;9.648;2023-11-19T23:51:45;6.67;;;3.20;;
18072;SDS011;9161;47.348;9.648;2023-11-19T23:56:48;5.03;;;2.80;;
